首页
METAR-TAF:

METAR-TAF

机场 :

Teslin, 育康省, 加拿大

纬度: 60-10N, 经度: 132-44W, 海拔: 711米

当前天气观测

该预报发布于4小时和0分钟前的01:00 UTC
风速4节,风向西
温度 -9°C
湿度 92%
气压 987 hPa
能見度: 48.3公里
散云层高于2500英尺
多云层高于4200英尺
多云层高于8200英尺

METAR: CYZW 250100Z 26004KT 30SM SCT025 BKN042 BKN082 M09/M10 A2916 RMK SC3SC2AC1 LAST STFD OBS/NXT 251700Z PRESRR SLP924

时间: 21:00 (05:00 UTC)

预报

该预报发布于9小时和52分钟前的19:08 UTC
预报有效从24日的 19点(UTC)到 25日的 01点(UTC)
风速8节,风向
能見度: 1.6公里
阴天层高于2500英尺
小雪
短暂存在
从 24日的 19点(UTC)到 24日的 23点(UTC)
能見度: 4.8公里
多云层高于3000英尺
阴天层高于5000英尺
小雪
从 24日的 2300点(UTC)
风速3节,风向多变
能見度: 4.8公里
多云层高于3000英尺
阴天层高于5000英尺
小雪
从 25日的 0000点(UTC)
风速5节,风向西
能見度: 10公里
散云层高于3000英尺
多云层高于5000英尺

TAF: CYZW 241908Z 2419/2501 08008KT 1SM -SN OVC025 TEMPO 2419/2423 3SM -SN BKN030 OVC050 FM242300 VRB03KT 3SM -SN BKN030 OVC050 FM250000 26005KT P6SM SCT030 BKN050 RMK NXT FCST WILL BE ISSUED AT 251845Z

超过4000个机场的气象观测和天气预报(METAR&TAF报告)。

可查询的气象台以黄色和红色小点在地图上表示。

将鼠标移到小点上方,可查看气象台名称。

然后点击查看天气观测和预报。

如需切换地图:点击带黑十字的绿色按钮放大地图;点击带横线的绿色按钮缩小地图;或者点击绿色箭头查看邻近地区的地图。


METAR-TAF: